sensor_id;sensor_type;location;lat;lon;timestamp;P1;durP1;ratioP1;P2;durP2;ratioP2
22985;SDS011;11659;51.092;7.080;2022-08-01T00:01:11;2.60;;;2.40;;
22985;SDS011;11659;51.092;7.080;2022-08-01T00:03:38;3.23;;;2.77;;
22985;SDS011;11659;51.092;7.080;2022-08-01T00:06:04;2.60;;;2.40;;
22985;SDS011;11659;51.092;7.080;2022-08-01T00:08:31;3.47;;;2.80;;
22985;SDS011;11659;51.092;7.080;2022-08-01T00:10:57;3.23;;;2.93;;
22985;SDS011;11659;51.092;7.080;2022-08-01T00:13:23;3.30;;;2.70;;
22985;SDS011;11659;51.092;7.080;2022-08-01T00:15:49;3.37;;;2.80;;
22985;SDS011;11659;51.092;7.080;2022-08-01T00:18:15;3.20;;;2.90;;
22985;SDS011;11659;51.092;7.080;2022-08-01T00:20:41;2.67;;;2.43;;
22985;SDS011;11659;51.092;7.080;2022-08-01T00:23:08;3.53;;;2.67;;
22985;SDS011;11659;51.092;7.080;2022-08-01T00:25:36;3.10;;;2.63;;
22985;SDS011;11659;51.092;7.080;2022-08-01T00:28:02;3.00;;;2.70;;
22985;SDS011;11659;51.092;7.080;2022-08-01T00:30:28;2.80;;;2.60;;
22985;SDS011;11659;51.092;7.080;2022-08-01T00:32:54;2.50;;;2.30;;
22985;SDS011;11659;51.092;7.080;2022-08-01T00:35:20;2.70;;;2.50;;
22985;SDS011;11659;51.092;7.080;2022-08-01T00:37:46;2.20;;;2.00;;
22985;SDS011;11659;51.092;7.080;2022-08-01T00:40:12;2.77;;;2.30;;
22985;SDS011;11659;51.092;7.080;2022-08-01T00:42:39;2.40;;;2.20;;
22985;SDS011;11659;51.092;7.080;2022-08-01T00:45:07;2.57;;;2.37;;
22985;SDS011;11659;51.092;7.080;2022-08-01T00:47:33;2.47;;;2.27;;
22985;SDS011;11659;51.092;7.080;2022-08-01T00:49:59;2.80;;;2.10;;
22985;SDS011;11659;51.092;7.080;2022-08-01T00:52:25;2.20;;;2.00;;
22985;SDS011;11659;51.092;7.080;2022-08-01T00:54:51;2.23;;;1.90;;
22985;SDS011;11659;51.092;7.080;2022-08-01T00:57:17;3.27;;;2.10;;
22985;SDS011;11659;51.092;7.080;2022-08-01T00:59:45;2.50;;;2.30;;
22985;SDS011;11659;51.092;7.080;2022-08-01T01:02:10;2.43;;;2.23;;
22985;SDS011;11659;51.092;7.080;2022-08-01T01:04:37;2.47;;;2.17;;
22985;SDS011;11659;51.092;7.080;2022-08-01T01:07:06;2.60;;;2.27;;
22985;SDS011;11659;51.092;7.080;2022-08-01T01:09:42;2.27;;;1.90;;
22985;SDS011;11659;51.092;7.080;2022-08-01T01:12:16;2.50;;;2.27;;
22985;SDS011;11659;51.092;7.080;2022-08-01T01:14:51;2.60;;;2.33;;
22985;SDS011;11659;51.092;7.080;2022-08-01T01:17:24;2.53;;;2.27;;
22985;SDS011;11659;51.092;7.080;2022-08-01T01:19:55;3.03;;;2.70;;
22985;SDS011;11659;51.092;7.080;2022-08-01T01:22:30;2.77;;;2.57;;
22985;SDS011;11659;51.092;7.080;2022-08-01T01:25:17;2.73;;;2.53;;
22985;SDS011;11659;51.092;7.080;2022-08-01T01:27:57;2.97;;;2.20;;
22985;SDS011;11659;51.092;7.080;2022-08-01T01:30:32;2.50;;;2.30;;
22985;SDS011;11659;51.092;7.080;2022-08-01T01:33:01;3.60;;;2.50;;
22985;SDS011;11659;51.092;7.080;2022-08-01T01:35:29;3.23;;;2.43;;
22985;SDS011;11659;51.092;7.080;2022-08-01T01:38:00;2.70;;;2.10;;
22985;SDS011;11659;51.092;7.080;2022-08-01T01:40:29;2.73;;;2.53;;
22985;SDS011;11659;51.092;7.080;2022-08-01T01:42:56;3.40;;;2.50;;
22985;SDS011;11659;51.092;7.080;2022-08-01T01:45:23;2.77;;;2.57;;
22985;SDS011;11659;51.092;7.080;2022-08-01T01:47:51;2.83;;;2.53;;
22985;SDS011;11659;51.092;7.080;2022-08-01T01:50:19;4.97;;;3.00;;
22985;SDS011;11659;51.092;7.080;2022-08-01T01:52:46;3.40;;;2.70;;
22985;SDS011;11659;51.092;7.080;2022-08-01T01:55:14;4.00;;;3.20;;
22985;SDS011;11659;51.092;7.080;2022-08-01T01:57:42;3.53;;;3.10;;
22985;SDS011;11659;51.092;7.080;2022-08-01T02:00:10;3.23;;;2.87;;
22985;SDS011;11659;51.092;7.080;2022-08-01T02:02:37;4.10;;;3.07;;
22985;SDS011;11659;51.092;7.080;2022-08-01T02:05:05;3.53;;;2.97;;
22985;SDS011;11659;51.092;7.080;2022-08-01T02:07:33;4.27;;;3.30;;
22985;SDS011;11659;51.092;7.080;2022-08-01T02:10:01;3.10;;;2.67;;
22985;SDS011;11659;51.092;7.080;2022-08-01T02:12:29;3.30;;;2.80;;
22985;SDS011;11659;51.092;7.080;2022-08-01T02:14:57;3.40;;;2.77;;
22985;SDS011;11659;51.092;7.080;2022-08-01T02:17:25;3.33;;;3.03;;
22985;SDS011;11659;51.092;7.080;2022-08-01T02:19:52;3.20;;;2.87;;
22985;SDS011;11659;51.092;7.080;2022-08-01T02:22:21;3.30;;;3.00;;
22985;SDS011;11659;51.092;7.080;2022-08-01T02:24:55;4.13;;;3.00;;
22985;SDS011;11659;51.092;7.080;2022-08-01T02:27:34;3.40;;;2.90;;
22985;SDS011;11659;51.092;7.080;2022-08-01T02:30:06;3.60;;;2.97;;
22985;SDS011;11659;51.092;7.080;2022-08-01T02:32:36;3.67;;;2.97;;
22985;SDS011;11659;51.092;7.080;2022-08-01T02:35:07;2.73;;;2.53;;
22985;SDS011;11659;51.092;7.080;2022-08-01T02:37:38;2.80;;;2.60;;
22985;SDS011;11659;51.092;7.080;2022-08-01T02:40:05;3.00;;;2.70;;
22985;SDS011;11659;51.092;7.080;2022-08-01T02:42:33;3.27;;;2.97;;
22985;SDS011;11659;51.092;7.080;2022-08-01T02:45:01;3.00;;;2.70;;
22985;SDS011;11659;51.092;7.080;2022-08-01T02:47:29;3.33;;;2.70;;
22985;SDS011;11659;51.092;7.080;2022-08-01T02:49:57;2.93;;;2.60;;
22985;SDS011;11659;51.092;7.080;2022-08-01T02:52:25;3.10;;;2.60;;
22985;SDS011;11659;51.092;7.080;2022-08-01T02:54:55;3.00;;;2.40;;
22985;SDS011;11659;51.092;7.080;2022-08-01T02:57:23;4.00;;;2.60;;
22985;SDS011;11659;51.092;7.080;2022-08-01T02:59:50;2.50;;;2.30;;
22985;SDS011;11659;51.092;7.080;2022-08-01T03:02:17;2.90;;;2.50;;
22985;SDS011;11659;51.092;7.080;2022-08-01T03:04:44;2.87;;;2.67;;
22985;SDS011;11659;51.092;7.080;2022-08-01T03:07:11;3.27;;;2.90;;
22985;SDS011;11659;51.092;7.080;2022-08-01T03:09:39;2.80;;;2.60;;
22985;SDS011;11659;51.092;7.080;2022-08-01T03:12:09;3.03;;;2.73;;
22985;SDS011;11659;51.092;7.080;2022-08-01T03:14:39;3.23;;;2.50;;
22985;SDS011;11659;51.092;7.080;2022-08-01T03:17:07;3.77;;;2.80;;
22985;SDS011;11659;51.092;7.080;2022-08-01T03:19:34;3.80;;;2.97;;
22985;SDS011;11659;51.092;7.080;2022-08-01T03:22:03;4.17;;;3.00;;
22985;SDS011;11659;51.092;7.080;2022-08-01T03:24:32;4.13;;;2.90;;
22985;SDS011;11659;51.092;7.080;2022-08-01T03:27:00;3.40;;;3.10;;
22985;SDS011;11659;51.092;7.080;2022-08-01T03:29:29;3.53;;;3.00;;
22985;SDS011;11659;51.092;7.080;2022-08-01T03:31:57;3.20;;;2.90;;
22985;SDS011;11659;51.092;7.080;2022-08-01T03:34:25;3.20;;;2.83;;
22985;SDS011;11659;51.092;7.080;2022-08-01T03:36:53;5.30;;;3.13;;
22985;SDS011;11659;51.092;7.080;2022-08-01T03:39:25;3.43;;;3.13;;
22985;SDS011;11659;51.092;7.080;2022-08-01T03:41:56;3.47;;;3.17;;
22985;SDS011;11659;51.092;7.080;2022-08-01T03:44:25;3.27;;;2.97;;
22985;SDS011;11659;51.092;7.080;2022-08-01T03:46:58;2.63;;;2.43;;
22985;SDS011;11659;51.092;7.080;2022-08-01T03:49:28;2.53;;;2.33;;
22985;SDS011;11659;51.092;7.080;2022-08-01T03:51:57;3.17;;;2.80;;
22985;SDS011;11659;51.092;7.080;2022-08-01T03:54:28;3.73;;;2.80;;
22985;SDS011;11659;51.092;7.080;2022-08-01T03:56:59;3.40;;;2.77;;
22985;SDS011;11659;51.092;7.080;2022-08-01T03:59:28;3.33;;;2.63;;
22985;SDS011;11659;51.092;7.080;2022-08-01T04:01:55;2.80;;;2.60;;
22985;SDS011;11659;51.092;7.080;2022-08-01T04:04:22;3.23;;;2.90;;
22985;SDS011;11659;51.092;7.080;2022-08-01T04:06:49;3.50;;;2.90;;
22985;SDS011;11659;51.092;7.080;2022-08-01T04:09:19;3.43;;;3.10;;
22985;SDS011;11659;51.092;7.080;2022-08-01T04:11:46;5.03;;;3.50;;
22985;SDS011;11659;51.092;7.080;2022-08-01T04:14:13;3.57;;;3.17;;
22985;SDS011;11659;51.092;7.080;2022-08-01T04:16:40;3.80;;;3.30;;
22985;SDS011;11659;51.092;7.080;2022-08-01T04:19:06;4.13;;;3.17;;
22985;SDS011;11659;51.092;7.080;2022-08-01T04:21:35;3.80;;;3.20;;
22985;SDS011;11659;51.092;7.080;2022-08-01T04:24:03;3.23;;;2.93;;
22985;SDS011;11659;51.092;7.080;2022-08-01T04:26:32;3.57;;;3.20;;
22985;SDS011;11659;51.092;7.080;2022-08-01T04:29:01;3.53;;;3.10;;
22985;SDS011;11659;51.092;7.080;2022-08-01T04:31:30;4.30;;;3.90;;
22985;SDS011;11659;51.092;7.080;2022-08-01T04:33:58;4.10;;;3.70;;
22985;SDS011;11659;51.092;7.080;2022-08-01T04:36:27;4.10;;;3.70;;
22985;SDS011;11659;51.092;7.080;2022-08-01T04:38:56;4.20;;;3.80;;
22985;SDS011;11659;51.092;7.080;2022-08-01T04:41:25;3.90;;;3.60;;
22985;SDS011;11659;51.092;7.080;2022-08-01T04:43:51;4.10;;;3.70;;
22985;SDS011;11659;51.092;7.080;2022-08-01T04:46:19;4.23;;;3.83;;
22985;SDS011;11659;51.092;7.080;2022-08-01T04:48:45;5.47;;;4.27;;
22985;SDS011;11659;51.092;7.080;2022-08-01T04:51:14;4.27;;;3.87;;
22985;SDS011;11659;51.092;7.080;2022-08-01T04:53:40;4.90;;;4.40;;
22985;SDS011;11659;51.092;7.080;2022-08-01T04:56:07;4.97;;;4.20;;
22985;SDS011;11659;51.092;7.080;2022-08-01T04:58:33;6.57;;;4.67;;
22985;SDS011;11659;51.092;7.080;2022-08-01T05:00:59;6.10;;;4.23;;
22985;SDS011;11659;51.092;7.080;2022-08-01T05:03:25;5.80;;;4.90;;
22985;SDS011;11659;51.092;7.080;2022-08-01T05:05:51;7.03;;;5.13;;
22985;SDS011;11659;51.092;7.080;2022-08-01T05:08:18;5.23;;;4.67;;
22985;SDS011;11659;51.092;7.080;2022-08-01T05:10:44;6.40;;;5.33;;
22985;SDS011;11659;51.092;7.080;2022-08-01T05:13:10;5.50;;;4.60;;
22985;SDS011;11659;51.092;7.080;2022-08-01T05:15:36;4.53;;;4.13;;
22985;SDS011;11659;51.092;7.080;2022-08-01T05:18:02;5.20;;;4.80;;
22985;SDS011;11659;51.092;7.080;2022-08-01T05:20:28;4.73;;;4.30;;
22985;SDS011;11659;51.092;7.080;2022-08-01T05:22:54;4.50;;;4.10;;
22985;SDS011;11659;51.092;7.080;2022-08-01T05:25:21;4.67;;;4.17;;
22985;SDS011;11659;51.092;7.080;2022-08-01T05:27:48;5.03;;;4.40;;
22985;SDS011;11659;51.092;7.080;2022-08-01T05:30:14;5.20;;;4.70;;
22985;SDS011;11659;51.092;7.080;2022-08-01T05:32:41;5.53;;;5.03;;
22985;SDS011;11659;51.092;7.080;2022-08-01T05:35:07;5.77;;;5.13;;
22985;SDS011;11659;51.092;7.080;2022-08-01T05:37:34;7.47;;;5.50;;
22985;SDS011;11659;51.092;7.080;2022-08-01T05:40:00;6.00;;;5.40;;
22985;SDS011;11659;51.092;7.080;2022-08-01T05:42:27;6.33;;;5.70;;
22985;SDS011;11659;51.092;7.080;2022-08-01T05:44:53;6.10;;;5.60;;
22985;SDS011;11659;51.092;7.080;2022-08-01T05:47:19;6.77;;;6.07;;
22985;SDS011;11659;51.092;7.080;2022-08-01T05:49:45;7.23;;;5.67;;
22985;SDS011;11659;51.092;7.080;2022-08-01T05:52:11;6.00;;;5.50;;
22985;SDS011;11659;51.092;7.080;2022-08-01T05:54:37;6.30;;;5.67;;
22985;SDS011;11659;51.092;7.080;2022-08-01T05:57:03;8.20;;;6.50;;
22985;SDS011;11659;51.092;7.080;2022-08-01T05:59:31;7.77;;;6.33;;
22985;SDS011;11659;51.092;7.080;2022-08-01T06:01:57;7.37;;;6.67;;
22985;SDS011;11659;51.092;7.080;2022-08-01T06:04:23;7.50;;;6.70;;
22985;SDS011;11659;51.092;7.080;2022-08-01T06:06:49;7.97;;;7.17;;
22985;SDS011;11659;51.092;7.080;2022-08-01T06:09:15;7.33;;;6.63;;
22985;SDS011;11659;51.092;7.080;2022-08-01T06:11:40;7.20;;;6.43;;
22985;SDS011;11659;51.092;7.080;2022-08-01T06:14:06;7.93;;;7.17;;
22985;SDS011;11659;51.092;7.080;2022-08-01T06:16:34;7.13;;;6.43;;
22985;SDS011;11659;51.092;7.080;2022-08-01T06:19:00;8.53;;;6.87;;
22985;SDS011;11659;51.092;7.080;2022-08-01T06:21:26;9.73;;;6.97;;
22985;SDS011;11659;51.092;7.080;2022-08-01T06:23:52;8.93;;;7.37;;
22985;SDS011;11659;51.092;7.080;2022-08-01T06:26:18;6.90;;;6.20;;
22985;SDS011;11659;51.092;7.080;2022-08-01T06:28:44;7.80;;;6.50;;
22985;SDS011;11659;51.092;7.080;2022-08-01T06:31:10;7.13;;;6.43;;
22985;SDS011;11659;51.092;7.080;2022-08-01T06:33:39;7.60;;;6.83;;
22985;SDS011;11659;51.092;7.080;2022-08-01T06:36:05;7.63;;;6.83;;
22985;SDS011;11659;51.092;7.080;2022-08-01T06:38:31;7.27;;;6.43;;
22985;SDS011;11659;51.092;7.080;2022-08-01T06:40:57;7.57;;;6.80;;
22985;SDS011;11659;51.092;7.080;2022-08-01T06:43:23;9.07;;;8.03;;
22985;SDS011;11659;51.092;7.080;2022-08-01T06:45:49;9.60;;;6.90;;
22985;SDS011;11659;51.092;7.080;2022-08-01T06:48:15;8.10;;;6.53;;
22985;SDS011;11659;51.092;7.080;2022-08-01T06:50:42;6.97;;;6.37;;
22985;SDS011;11659;51.092;7.080;2022-08-01T06:53:09;7.60;;;6.70;;
22985;SDS011;11659;51.092;7.080;2022-08-01T06:55:35;6.87;;;6.17;;
22985;SDS011;11659;51.092;7.080;2022-08-01T06:58:01;6.70;;;5.97;;
22985;SDS011;11659;51.092;7.080;2022-08-01T07:00:27;7.07;;;6.37;;
22985;SDS011;11659;51.092;7.080;2022-08-01T07:02:54;6.23;;;5.63;;
22985;SDS011;11659;51.092;7.080;2022-08-01T07:05:21;6.70;;;6.00;;
22985;SDS011;11659;51.092;7.080;2022-08-01T07:07:49;6.03;;;5.43;;
22985;SDS011;11659;51.092;7.080;2022-08-01T07:10:15;6.33;;;5.23;;
22985;SDS011;11659;51.092;7.080;2022-08-01T07:12:42;5.53;;;5.03;;
22985;SDS011;11659;51.092;7.080;2022-08-01T07:15:08;6.10;;;5.50;;
22985;SDS011;11659;51.092;7.080;2022-08-01T07:17:38;6.90;;;6.00;;
22985;SDS011;11659;51.092;7.080;2022-08-01T07:20:06;6.30;;;5.53;;
22985;SDS011;11659;51.092;7.080;2022-08-01T07:22:34;7.17;;;5.83;;
22985;SDS011;11659;51.092;7.080;2022-08-01T07:25:01;6.80;;;6.10;;
22985;SDS011;11659;51.092;7.080;2022-08-01T07:27:28;7.73;;;6.10;;
22985;SDS011;11659;51.092;7.080;2022-08-01T07:29:54;7.13;;;5.80;;
22985;SDS011;11659;51.092;7.080;2022-08-01T07:32:20;6.27;;;5.67;;
22985;SDS011;11659;51.092;7.080;2022-08-01T07:34:46;6.57;;;5.87;;
22985;SDS011;11659;51.092;7.080;2022-08-01T07:37:12;6.07;;;5.40;;
22985;SDS011;11659;51.092;7.080;2022-08-01T07:39:39;7.13;;;6.32;;
22985;SDS011;11659;51.092;7.080;2022-08-01T07:42:06;5.97;;;5.37;;
22985;SDS011;11659;51.092;7.080;2022-08-01T07:44:32;5.53;;;5.00;;
22985;SDS011;11659;51.092;7.080;2022-08-01T07:46:58;6.07;;;5.23;;
22985;SDS011;11659;51.092;7.080;2022-08-01T07:49:24;5.80;;;5.20;;
22985;SDS011;11659;51.092;7.080;2022-08-01T07:51:50;6.00;;;5.40;;
22985;SDS011;11659;51.092;7.080;2022-08-01T07:54:16;5.60;;;5.10;;
22985;SDS011;11659;51.092;7.080;2022-08-01T07:56:42;6.27;;;5.67;;
22985;SDS011;11659;51.092;7.080;2022-08-01T07:59:09;6.73;;;4.87;;
22985;SDS011;11659;51.092;7.080;2022-08-01T08:01:35;5.50;;;5.00;;
22985;SDS011;11659;51.092;7.080;2022-08-01T08:04:01;5.70;;;5.20;;
22985;SDS011;11659;51.092;7.080;2022-08-01T08:06:28;5.30;;;4.80;;
22985;SDS011;11659;51.092;7.080;2022-08-01T08:08:54;5.20;;;4.70;;
22985;SDS011;11659;51.092;7.080;2022-08-01T08:11:20;4.83;;;4.40;;
22985;SDS011;11659;51.092;7.080;2022-08-01T08:13:46;5.30;;;4.80;;
22985;SDS011;11659;51.092;7.080;2022-08-01T08:16:13;5.20;;;4.70;;
22985;SDS011;11659;51.092;7.080;2022-08-01T08:18:39;5.03;;;4.63;;
22985;SDS011;11659;51.092;7.080;2022-08-01T08:21:05;5.53;;;4.77;;
22985;SDS011;11659;51.092;7.080;2022-08-01T08:23:31;5.37;;;4.87;;
22985;SDS011;11659;51.092;7.080;2022-08-01T08:26:15;5.37;;;4.97;;
22985;SDS011;11659;51.092;7.080;2022-08-01T08:28:41;5.47;;;4.97;;
22985;SDS011;11659;51.092;7.080;2022-08-01T08:31:07;6.03;;;5.00;;
22985;SDS011;11659;51.092;7.080;2022-08-01T08:33:35;4.63;;;4.23;;
22985;SDS011;11659;51.092;7.080;2022-08-01T08:36:01;5.00;;;4.57;;
22985;SDS011;11659;51.092;7.080;2022-08-01T08:38:27;5.23;;;4.73;;
22985;SDS011;11659;51.092;7.080;2022-08-01T08:40:53;5.53;;;4.50;;
22985;SDS011;11659;51.092;7.080;2022-08-01T08:43:19;5.00;;;4.10;;
22985;SDS011;11659;51.092;7.080;2022-08-01T08:45:45;4.10;;;3.70;;
22985;SDS011;11659;51.092;7.080;2022-08-01T08:48:12;4.40;;;4.00;;
22985;SDS011;11659;51.092;7.080;2022-08-01T08:50:40;4.40;;;4.00;;
22985;SDS011;11659;51.092;7.080;2022-08-01T08:53:07;4.07;;;3.73;;
22985;SDS011;11659;51.092;7.080;2022-08-01T08:55:35;4.53;;;4.00;;
22985;SDS011;11659;51.092;7.080;2022-08-01T08:58:02;4.00;;;3.70;;
22985;SDS011;11659;51.092;7.080;2022-08-01T09:00:31;4.00;;;3.57;;
22985;SDS011;11659;51.092;7.080;2022-08-01T09:02:57;4.17;;;3.77;;
22985;SDS011;11659;51.092;7.080;2022-08-01T09:05:23;3.53;;;3.10;;
22985;SDS011;11659;51.092;7.080;2022-08-01T09:07:53;3.53;;;3.23;;
22985;SDS011;11659;51.092;7.080;2022-08-01T09:10:19;3.53;;;3.23;;
22985;SDS011;11659;51.092;7.080;2022-08-01T09:15:37;3.17;;;2.90;;
22985;SDS011;11659;51.092;7.080;2022-08-01T09:18:04;3.10;;;2.80;;
22985;SDS011;11659;51.092;7.080;2022-08-01T09:20:30;3.33;;;3.03;;
22985;SDS011;11659;51.092;7.080;2022-08-01T09:22:57;4.03;;;3.00;;
22985;SDS011;11659;51.092;7.080;2022-08-01T09:25:23;4.07;;;3.20;;
22985;SDS011;11659;51.092;7.080;2022-08-01T09:27:49;3.20;;;2.90;;
22985;SDS011;11659;51.092;7.080;2022-08-01T09:30:28;3.27;;;2.97;;
22985;SDS011;11659;51.092;7.080;2022-08-01T09:33:03;3.13;;;2.73;;
22985;SDS011;11659;51.092;7.080;2022-08-01T09:35:30;2.80;;;2.60;;
22985;SDS011;11659;51.092;7.080;2022-08-01T09:38:13;2.83;;;2.63;;
22985;SDS011;11659;51.092;7.080;2022-08-01T09:40:47;3.00;;;2.70;;
22985;SDS011;11659;51.092;7.080;2022-08-01T09:43:15;2.80;;;2.40;;
22985;SDS011;11659;51.092;7.080;2022-08-01T09:45:41;2.97;;;2.67;;
22985;SDS011;11659;51.092;7.080;2022-08-01T09:48:08;2.87;;;2.67;;
22985;SDS011;11659;51.092;7.080;2022-08-01T09:50:40;2.90;;;2.70;;
22985;SDS011;11659;51.092;7.080;2022-08-01T09:53:07;2.90;;;2.70;;
22985;SDS011;11659;51.092;7.080;2022-08-01T09:55:35;2.60;;;2.37;;
22985;SDS011;11659;51.092;7.080;2022-08-01T09:58:02;2.70;;;2.50;;
22985;SDS011;11659;51.092;7.080;2022-08-01T10:00:29;2.40;;;2.20;;
22985;SDS011;11659;51.092;7.080;2022-08-01T10:02:56;2.50;;;2.30;;
22985;SDS011;11659;51.092;7.080;2022-08-01T10:05:29;2.77;;;2.53;;
22985;SDS011;11659;51.092;7.080;2022-08-01T10:07:57;2.97;;;2.67;;
22985;SDS011;11659;51.092;7.080;2022-08-01T10:10:24;3.13;;;2.87;;
22985;SDS011;11659;51.092;7.080;2022-08-01T10:12:52;2.80;;;2.58;;
22985;SDS011;11659;51.092;7.080;2022-08-01T10:15:21;2.83;;;2.50;;
22985;SDS011;11659;51.092;7.080;2022-08-01T10:17:51;2.97;;;2.77;;
22985;SDS011;11659;51.092;7.080;2022-08-01T10:20:19;2.67;;;2.47;;
22985;SDS011;11659;51.092;7.080;2022-08-01T10:22:47;2.93;;;2.60;;
22985;SDS011;11659;51.092;7.080;2022-08-01T10:25:16;2.63;;;2.43;;
22985;SDS011;11659;51.092;7.080;2022-08-01T10:27:45;2.70;;;2.47;;
22985;SDS011;11659;51.092;7.080;2022-08-01T10:30:15;2.67;;;2.47;;
22985;SDS011;11659;51.092;7.080;2022-08-01T10:32:41;2.63;;;2.30;;
22985;SDS011;11659;51.092;7.080;2022-08-01T10:35:10;2.63;;;2.43;;
22985;SDS011;11659;51.092;7.080;2022-08-01T10:37:42;2.57;;;2.37;;
22985;SDS011;11659;51.092;7.080;2022-08-01T10:40:11;2.53;;;2.33;;
22985;SDS011;11659;51.092;7.080;2022-08-01T10:42:38;3.03;;;2.83;;
22985;SDS011;11659;51.092;7.080;2022-08-01T10:45:05;2.50;;;2.30;;
22985;SDS011;11659;51.092;7.080;2022-08-01T10:47:34;2.87;;;2.63;;
22985;SDS011;11659;51.092;7.080;2022-08-01T10:50:07;2.53;;;2.33;;
22985;SDS011;11659;51.092;7.080;2022-08-01T10:52:41;2.60;;;2.40;;
22985;SDS011;11659;51.092;7.080;2022-08-01T10:55:07;2.67;;;2.40;;
22985;SDS011;11659;51.092;7.080;2022-08-01T10:57:42;2.40;;;2.20;;
22985;SDS011;11659;51.092;7.080;2022-08-01T11:00:10;2.50;;;2.30;;
22985;SDS011;11659;51.092;7.080;2022-08-01T11:02:44;2.70;;;2.50;;
22985;SDS011;11659;51.092;7.080;2022-08-01T11:05:23;2.33;;;2.13;;
22985;SDS011;11659;51.092;7.080;2022-08-01T11:07:51;2.20;;;2.00;;
22985;SDS011;11659;51.092;7.080;2022-08-01T11:10:21;2.20;;;2.00;;
22985;SDS011;11659;51.092;7.080;2022-08-01T11:12:51;2.43;;;2.23;;
22985;SDS011;11659;51.092;7.080;2022-08-01T11:15:18;2.73;;;2.30;;
22985;SDS011;11659;51.092;7.080;2022-08-01T11:17:54;2.50;;;2.30;;
22985;SDS011;11659;51.092;7.080;2022-08-01T11:20:22;2.43;;;2.10;;
22985;SDS011;11659;51.092;7.080;2022-08-01T11:28:35;2.40;;;2.20;;
22985;SDS011;11659;51.092;7.080;2022-08-01T11:34:02;2.10;;;1.90;;
22985;SDS011;11659;51.092;7.080;2022-08-01T11:36:28;2.30;;;2.10;;
22985;SDS011;11659;51.092;7.080;2022-08-01T11:39:10;2.13;;;1.93;;
22985;SDS011;11659;51.092;7.080;2022-08-01T11:41:41;2.00;;;1.80;;
22985;SDS011;11659;51.092;7.080;2022-08-01T11:44:09;1.70;;;1.60;;
22985;SDS011;11659;51.092;7.080;2022-08-01T11:46:51;2.43;;;1.70;;
22985;SDS011;11659;51.092;7.080;2022-08-01T11:49:27;2.00;;;1.80;;
22985;SDS011;11659;51.092;7.080;2022-08-01T11:52:10;2.13;;;1.92;;
22985;SDS011;11659;51.092;7.080;2022-08-01T11:54:38;1.67;;;1.58;;
22985;SDS011;11659;51.092;7.080;2022-08-01T11:57:05;2.33;;;1.43;;
22985;SDS011;11659;51.092;7.080;2022-08-01T11:59:36;1.70;;;1.60;;
22985;SDS011;11659;51.092;7.080;2022-08-01T12:02:04;1.50;;;1.40;;
22985;SDS011;11659;51.092;7.080;2022-08-01T12:04:49;1.47;;;1.37;;
22985;SDS011;11659;51.092;7.080;2022-08-01T12:07:18;1.40;;;1.30;;
22985;SDS011;11659;51.092;7.080;2022-08-01T12:09:45;1.80;;;1.60;;
22985;SDS011;11659;51.092;7.080;2022-08-01T12:12:14;2.17;;;1.30;;
22985;SDS011;11659;51.092;7.080;2022-08-01T12:14:44;1.90;;;1.60;;
22985;SDS011;11659;51.092;7.080;2022-08-01T12:17:17;1.80;;;1.40;;
22985;SDS011;11659;51.092;7.080;2022-08-01T12:19:43;1.70;;;1.40;;
22985;SDS011;11659;51.092;7.080;2022-08-01T12:22:16;1.60;;;1.50;;
22985;SDS011;11659;51.092;7.080;2022-08-01T12:24:42;1.57;;;1.43;;
22985;SDS011;11659;51.092;7.080;2022-08-01T12:27:08;1.60;;;1.50;;
22985;SDS011;11659;51.092;7.080;2022-08-01T12:29:35;1.73;;;1.53;;
22985;SDS011;11659;51.092;7.080;2022-08-01T12:32:03;1.53;;;1.40;;
22985;SDS011;11659;51.092;7.080;2022-08-01T12:34:30;1.40;;;1.30;;
22985;SDS011;11659;51.092;7.080;2022-08-01T12:37:00;1.50;;;1.40;;
22985;SDS011;11659;51.092;7.080;2022-08-01T12:39:33;1.53;;;1.43;;
22985;SDS011;11659;51.092;7.080;2022-08-01T12:41:59;1.50;;;1.40;;
22985;SDS011;11659;51.092;7.080;2022-08-01T12:44:26;1.63;;;1.50;;
22985;SDS011;11659;51.092;7.080;2022-08-01T12:46:55;2.00;;;1.23;;
22985;SDS011;11659;51.092;7.080;2022-08-01T12:49:21;1.30;;;1.20;;
22985;SDS011;11659;51.092;7.080;2022-08-01T12:51:47;1.20;;;1.10;;
22985;SDS011;11659;51.092;7.080;2022-08-01T12:54:15;1.27;;;1.17;;
22985;SDS011;11659;51.092;7.080;2022-08-01T12:56:41;1.00;;;1.00;;
22985;SDS011;11659;51.092;7.080;2022-08-01T13:01:50;1.30;;;1.20;;
22985;SDS011;11659;51.092;7.080;2022-08-01T13:04:17;0.90;;;0.90;;
22985;SDS011;11659;51.092;7.080;2022-08-01T13:06:43;1.30;;;1.20;;
22985;SDS011;11659;51.092;7.080;2022-08-01T13:09:10;1.10;;;1.00;;
22985;SDS011;11659;51.092;7.080;2022-08-01T13:11:39;1.30;;;1.20;;
22985;SDS011;11659;51.092;7.080;2022-08-01T13:14:06;1.33;;;1.23;;
22985;SDS011;11659;51.092;7.080;2022-08-01T13:16:32;1.30;;;1.20;;
22985;SDS011;11659;51.092;7.080;2022-08-01T13:19:10;1.20;;;1.10;;
22985;SDS011;11659;51.092;7.080;2022-08-01T13:21:36;1.30;;;1.20;;
22985;SDS011;11659;51.092;7.080;2022-08-01T13:24:03;1.30;;;1.20;;
22985;SDS011;11659;51.092;7.080;2022-08-01T13:26:40;1.20;;;1.10;;
22985;SDS011;11659;51.092;7.080;2022-08-01T13:29:08;1.37;;;1.23;;
22985;SDS011;11659;51.092;7.080;2022-08-01T13:31:35;1.47;;;1.37;;
22985;SDS011;11659;51.092;7.080;2022-08-01T13:34:02;1.43;;;1.33;;
22985;SDS011;11659;51.092;7.080;2022-08-01T13:36:29;2.00;;;1.40;;
22985;SDS011;11659;51.092;7.080;2022-08-01T13:38:56;1.30;;;1.20;;
22985;SDS011;11659;51.092;7.080;2022-08-01T13:41:42;1.47;;;1.30;;
22985;SDS011;11659;51.092;7.080;2022-08-01T13:44:08;1.40;;;1.30;;
22985;SDS011;11659;51.092;7.080;2022-08-01T13:46:36;1.10;;;1.00;;
22985;SDS011;11659;51.092;7.080;2022-08-01T13:49:03;1.30;;;1.20;;
22985;SDS011;11659;51.092;7.080;2022-08-01T13:51:30;1.20;;;1.10;;
22985;SDS011;11659;51.092;7.080;2022-08-01T13:53:56;1.23;;;1.10;;
22985;SDS011;11659;51.092;7.080;2022-08-01T13:56:22;1.50;;;1.40;;
22985;SDS011;11659;51.092;7.080;2022-08-01T13:58:49;1.40;;;1.30;;
22985;SDS011;11659;51.092;7.080;2022-08-01T14:01:15;1.40;;;1.30;;
22985;SDS011;11659;51.092;7.080;2022-08-01T14:03:42;1.23;;;1.10;;
22985;SDS011;11659;51.092;7.080;2022-08-01T14:06:08;1.30;;;1.20;;
22985;SDS011;11659;51.092;7.080;2022-08-01T14:08:34;1.23;;;1.13;;
22985;SDS011;11659;51.092;7.080;2022-08-01T14:11:00;1.30;;;1.20;;
22985;SDS011;11659;51.092;7.080;2022-08-01T14:13:26;1.10;;;1.00;;
22985;SDS011;11659;51.092;7.080;2022-08-01T14:15:54;1.33;;;1.23;;
22985;SDS011;11659;51.092;7.080;2022-08-01T14:18:20;1.63;;;1.17;;
22985;SDS011;11659;51.092;7.080;2022-08-01T14:20:46;1.60;;;1.30;;
22985;SDS011;11659;51.092;7.080;2022-08-01T14:23:12;1.30;;;1.20;;
22985;SDS011;11659;51.092;7.080;2022-08-01T14:25:39;1.20;;;1.10;;
22985;SDS011;11659;51.092;7.080;2022-08-01T14:28:06;1.40;;;1.30;;
22985;SDS011;11659;51.092;7.080;2022-08-01T14:30:32;1.80;;;1.50;;
22985;SDS011;11659;51.092;7.080;2022-08-01T14:33:00;1.40;;;1.30;;
22985;SDS011;11659;51.092;7.080;2022-08-01T14:35:26;1.57;;;1.30;;
22985;SDS011;11659;51.092;7.080;2022-08-01T14:37:52;1.20;;;1.10;;
22985;SDS011;11659;51.092;7.080;2022-08-01T14:40:18;1.30;;;1.20;;
22985;SDS011;11659;51.092;7.080;2022-08-01T14:42:44;1.40;;;1.30;;
22985;SDS011;11659;51.092;7.080;2022-08-01T14:45:10;1.43;;;1.30;;
22985;SDS011;11659;51.092;7.080;2022-08-01T14:47:38;1.40;;;1.30;;
22985;SDS011;11659;51.092;7.080;2022-08-01T14:50:08;1.20;;;1.10;;
22985;SDS011;11659;51.092;7.080;2022-08-01T14:52:36;1.40;;;1.30;;
22985;SDS011;11659;51.092;7.080;2022-08-01T14:55:04;1.47;;;1.37;;
22985;SDS011;11659;51.092;7.080;2022-08-01T14:57:32;1.13;;;1.10;;
22985;SDS011;11659;51.092;7.080;2022-08-01T14:59:58;2.23;;;1.50;;
22985;SDS011;11659;51.092;7.080;2022-08-01T15:02:24;1.10;;;1.00;;
22985;SDS011;11659;51.092;7.080;2022-08-01T15:04:50;1.40;;;1.30;;
22985;SDS011;11659;51.092;7.080;2022-08-01T15:07:18;1.40;;;1.30;;